Latest Weather Observations for Gelantipy

IDV60801

Issued at 12:05 am EST Thursday 2 October 2014 (issued every 30 minutes, with the page automatically refreshed every 10 minutes)

About weather observations | Map of weather stations | Latest weather observations for VIC | Other Formats
Station Details ID: 084142 Name: GELANTIPY Lat: -37.22 Lon: 148.26 Height: 755.0 m
Data from the previous 72 hours. | See also: Recent months at Gelantipy
Date/Time
EST
Temp
°C
App
Temp
°C
Dew
Point
Rel
Hum
%
Delta-T
°C
Wind Press
QNH
hPa
Press
MSL
hPa
Rain
since 9 am
mm
Dir
 
Spd
km/h
Gust
km/h
Spd
kts
Gust
kts
02/12:00am 3.9 0.1 1.9 87 0.8 W 11 13 6 7 1022.3 1021.7 0.2
 
Date/Time
EST
Temp
°C
App
Temp
°C
Dew
Point
Rel
Hum
%
Delta-T
°C
Wind Press
QNH
hPa
Press
MSL
hPa
Rain
since 9 am
mm
Dir
 
Spd
km/h
Gust
km/h
Spd
kts
Gust
kts
01/11:30pm 3.3 -0.5 1.7 89 0.7 WSW 11 13 6 7 1022.3 1021.7 0.2
01/11:00pm 4.1 0.8 2.3 88 0.8 SW 9 15 5 8 1022.7 1022.1 0.2
01/10:30pm 4.4 0.4 2.6 88 0.8 WSW 13 20 7 11 1022.9 1022.3 0.2
01/10:00pm 4.4 -0.1 2.4 87 0.8 WSW 15 20 8 11 1022.9 1022.3 0.2
01/09:30pm 4.5 0.4 2.4 86 0.9 SW 13 17 7 9 1022.9 1022.3 0.2
01/09:00pm 4.5 1.5 2.0 84 1.0 WSW 7 9 4 5 1022.9 1022.3 0.2
01/08:30pm 4.3 0.8 1.5 82 1.2 SW 9 13 5 7 1022.8 1022.2 0.2
01/08:00pm 4.1 0.6 1.0 80 1.3 SW 9 11 5 6 1022.3 1021.7 0.2
01/07:30pm 4.7 1.5 0.5 74 1.7 SSW 7 9 4 5 1021.9 1021.3 0.2
01/07:00pm 5.5 2.3 0.7 71 2.0 SSW 7 11 4 6 1021.4 1020.8 0.2
01/06:30pm 6.0 0.8 0.3 67 2.3 SW 17 22 9 12 1021.1 1020.5 0.2
01/06:00pm 6.8 2.0 0.5 64 2.6 SW 15 24 8 13 1020.9 1020.3 0.2
01/05:30pm 7.7 3.3 0.2 59 3.1 SSW 13 17 7 9 1020.8 1020.2 0.2
01/05:00pm 8.0 2.9 1.0 61 3.0 SW 17 30 9 16 1020.6 1020.0 0.2
01/04:30pm 8.9 3.9 1.3 59 3.3 SSW 17 26 9 14 1020.2 1019.6 0.2
01/04:00pm 8.9 3.8 0.9 57 3.4 SSW 17 32 9 17 1020.1 1019.4 0.2
01/03:30pm 9.3 4.6 1.2 57 3.5 SSW 15 26 8 14 1019.9 1019.2 0.2
01/03:00pm 9.4 5.3 2.5 62 3.1 S 13 20 7 11 1020.0 1019.3 0.0
01/02:41pm 9.6 2.5 1.3 56 3.6 WSW 28 46 15 25 1020.3 1019.7 0.0
01/02:30pm 9.0 0.5 0.7 56 3.5 WSW 35 50 19 27 1020.2 1019.6 0.0
01/02:26pm 8.9 0.8 -0.1 53 3.7 WSW 32 50 17 27 1020.2 1019.6 0.0
01/02:23pm 9.0 1.9 1.2 58 3.3 WSW 28 44 15 24 1020.1 1019.4 0.0
01/02:00pm 8.3 3.1 2.3 66 2.6 SW 19 24 10 13 1020.0 1019.3 0.0
01/01:30pm 8.5 1.2 2.7 67 2.6 WSW 30 43 16 23 1020.0 1019.3 0.0
01/01:11pm 7.5 0.3 0.5 61 2.9 SW 28 48 15 26 1020.2 1019.6 0.0
01/01:00pm 8.3 2.3 1.0 60 3.1 SW 22 30 12 16 1020.0 1019.3 0.0
01/12:30pm 8.3 1.3 -0.2 55 3.5 WSW 26 39 14 21 1020.0 1019.3 0.0
01/12:00pm 7.9 1.0 2.4 68 2.4 W 28 39 15 21 1020.0 1019.3 0.0
01/11:37am 7.9 0.4 0.9 61 3.0 WSW 30 54 16 29 1019.9 1019.2 0.0
01/11:30am 7.6 0.4 1.0 63 2.8 WSW 28 39 15 21 1020.0 1019.3 0.0
01/11:00am 6.9 -0.2 1.6 69 2.2 WSW 28 43 15 23 1019.7 1019.1 0.0
01/10:30am 5.9 -1.3 0.5 68 2.2 WSW 28 43 15 23 1019.7 1019.1 0.0
01/10:00am 6.1 -1.9 0.6 68 2.3 WSW 32 43 17 23 1019.6 1019.0 0.0
01/09:43am 5.5 -1.8 0.1 68 2.2 SW 28 48 15 26 1019.3 1019.3 0.0
01/09:30am 5.5 -1.4 0.1 68 2.2 SW 26 37 14 20 1019.2 1019.2 0.0
01/09:16am 5.4 -2.7 -0.6 65 2.4 SW 32 50 17 27 1019.0 1019.0 0.0
01/09:00am 5.3 -2.8 -0.1 68 2.2 WSW 32 44 17 24 1018.7 1018.6 7.0
01/08:30am 4.3 -4.0 -0.3 72 1.8 SW 33 50 18 27 1018.3 1018.3 7.0
01/08:16am 4.2 -3.2 -0.8 70 1.9 SW 28 46 15 25 1017.9 1017.9 7.0
01/08:00am 4.4 -2.5 0.0 73 1.7 WSW 26 39 14 21 1017.6 1017.5 7.0
01/07:30am 3.7 -3.7 -0.7 73 1.7 SW 28 48 15 26 1017.2 1017.1 7.0
01/07:20am 3.6 -4.2 -1.0 72 1.8 WSW 30 48 16 26 1016.8 1016.8 7.0
01/07:00am 3.3 -4.2 -1.1 73 1.7 WSW 28 41 15 22 1016.6 1016.6 7.0
01/06:30am 3.0 -4.5 -1.2 74 1.6 WSW 28 43 15 23 1016.3 1016.2 7.0
01/06:00am 2.6 -4.9 -1.2 76 1.4 WSW 28 39 15 21 1015.8 1015.7 7.0
01/05:50am 2.5 -5.3 -0.8 79 1.3 WSW 30 48 16 26 1015.4 1015.4 7.0
01/05:30am 3.0 -3.7 -1.2 74 1.6 WSW 24 33 13 18 1015.0 1014.9 7.0
01/05:14am 3.0 -4.9 -1.4 73 1.7 WSW 30 48 16 26 1014.5 1014.4 7.0
01/05:00am 2.6 -3.7 -1.0 77 1.4 WSW 22 43 12 23 1014.4 1014.3 7.0
01/04:30am 2.0 -4.2 -0.2 85 0.8 WSW 22 33 12 18 1013.6 1013.5 7.0
01/04:00am 2.5 -4.8 0.1 84 0.9 WSW 28 41 15 22 1013.4 1013.3 7.0
01/03:30am 3.5 -1.1 -0.9 73 1.7 SSW 13 26 7 14 1012.6 1012.5 7.0
01/03:00am 4.1 -1.0 -2.1 64 2.3 SW 15 19 8 10 1011.8 1011.6 7.0
01/02:30am 4.1 -1.8 -2.3 63 2.4 WSW 19 33 10 18 1011.4 1011.2 7.0
01/02:00am 4.3 -1.8 -2.5 61 2.5 WSW 20 33 11 18 1011.1 1011.0 7.0
01/01:30am 4.3 -1.9 -2.8 60 2.6 WSW 20 28 11 15 1011.0 1010.9 7.0
01/01:00am 4.1 -1.7 -1.5 67 2.1 WSW 19 26 10 14 1010.7 1010.5 7.0
01/12:30am 4.4 -0.9 -0.8 69 2.0 W 17 24 9 13 1010.5 1010.3 7.0
01/12:00am 4.4 -1.2 0.2 74 1.7 W 19 24 10 13 1010.5 1010.3 7.0
 
Date/Time
EST
Temp
°C
App
Temp
°C
Dew
Point
Rel
Hum
%
Delta-T
°C
Wind Press
QNH
hPa
Press
MSL
hPa
Rain
since 9 am
mm
Dir
 
Spd
km/h
Gust
km/h
Spd
kts
Gust
kts
30/11:30pm 5.1 -2.2 -0.1 69 2.1 WSW 28 41 15 22 1010.5 1010.3 7.0
30/11:00pm 5.2 -0.4 1.1 75 1.7 WSW 20 30 11 16 1010.4 1010.2 7.0
30/10:30pm 5.1 0.6 2.3 82 1.2 W 15 24 8 13 1010.0 1009.8 7.0
30/10:00pm 4.7 0.2 4.0 95 0.3 SW 17 30 9 16 1009.7 1009.6 7.0
30/09:30pm 4.6 -0.5 4.2 97 0.2 SW 20 33 11 18 1009.7 1009.6 6.6
30/09:00pm 4.3 0.5 4.0 98 0.1 SSW 13 22 7 12 1009.6 1009.5 5.0
30/08:30pm 4.7 0.6 4.1 96 0.3 S 15 26 8 14 1009.0 1008.8 2.6
30/08:00pm 5.5 0.6 5.1 97 0.2 S 20 43 11 23 1008.1 1007.9 1.8
30/07:30pm 8.3 3.9 7.2 93 0.5 S 20 33 11 18 1007.3 1007.0 1.8
30/07:00pm 9.9 8.4 8.3 90 0.8 WSW 6 13 3 7 1006.3 1006.1 1.8
30/06:55pm 10.0 7.5 8.4 90 0.8 W 11 19 6 10 1006.3 1006.1 1.8
30/06:30pm 11.9 4.3 7.4 74 2.3 WNW 37 69 20 37 1006.4 1006.2 0.4
30/06:00pm 14.6 8.1 4.6 51 4.9 NW 28 54 15 29 1005.2 1005.0 0.0
30/05:30pm 15.9 8.0 4.3 46 5.6 NW 35 54 19 29 1005.2 1005.0 0.0
30/05:00pm 16.4 8.6 4.8 46 5.7 NW 35 59 19 32 1005.4 1005.2 0.0
30/04:30pm 17.3 10.3 3.9 41 6.5 NNW 30 50 16 27 1005.2 1005.0 0.0
30/04:00pm 17.6 10.1 4.2 41 6.6 NNW 33 52 18 28 1005.4 1005.2 0.0
30/03:30pm 18.1 9.4 4.3 40 6.8 WNW 39 67 21 36 1005.3 1005.1 0.0
30/03:00pm 18.5 10.2 1.9 33 7.9 NW 35 63 19 34 1005.5 1005.3 0.0
30/02:30pm 18.6 9.2 2.4 34 7.7 NW 41 67 22 36 1005.7 1005.4 0.0
30/02:09pm 18.9 10.0 0.5 29 8.5 NW 37 80 20 43 1005.2 1005.0 0.0
30/02:03pm 19.0 12.2 3.2 35 7.7 NNW 28 52 15 28 1005.2 1005.0 0.0
30/02:00pm 19.3 13.1 2.2 32 8.2 NNW 24 43 13 23 1005.4 1005.2 0.0
30/01:39pm 19.0 12.7 5.5 41 6.9 NNW 28 46 15 25 1005.8 1005.5 0.0
30/01:36pm 18.8 11.1 2.2 33 7.9 NNW 32 46 17 25 1005.8 1005.5 0.0
30/01:33pm 18.8 10.0 3.8 37 7.4 WNW 39 61 21 33 1005.9 1005.6 0.0
30/01:32pm 18.8 11.9 2.6 34 7.8 NNW 28 61 15 33 1005.9 1005.6 0.0
30/01:30pm 18.9 12.6 3.9 37 7.4 NNW 26 48 14 26 1006.2 1005.9 0.0
30/01:00pm 18.6 11.2 5.1 41 6.8 NW 33 54 18 29 1007.2 1006.9 0.0
30/12:38pm 18.5 11.8 3.6 37 7.3 NNW 28 54 15 29 1007.5 1007.3 0.0
30/12:30pm 18.7 12.6 4.8 40 7.0 NW 26 43 14 23 1007.7 1007.5 0.0
30/12:04pm 18.3 10.5 4.8 41 6.7 NW 35 57 19 31 1007.8 1007.6 0.0
30/12:00pm 18.3 10.4 4.1 39 7.0 NW 35 50 19 27 1008.1 1007.9 0.0
30/11:30am 18.2 9.4 5.4 43 6.5 NW 41 61 22 33 1008.7 1008.5 0.0
30/11:00am 17.7 8.5 3.6 39 6.9 NW 41 63 22 34 1008.8 1008.6 0.0
30/10:51am 17.8 8.7 4.0 40 6.8 NW 41 59 22 32 1008.8 1008.6 0.0
30/10:49am 17.9 9.3 4.8 42 6.5 NNW 39 56 21 30 1008.7 1008.5 0.0
30/10:41am 18.1 10.5 5.7 44 6.3 WNW 35 54 19 29 1009.0 1008.8 0.0
30/10:30am 17.8 9.9 4.4 41 6.6 WNW 35 48 19 26 1009.1 1008.9 0.0
30/10:03am 17.8 11.2 4.0 40 6.8 WNW 28 46 15 25 1009.6 1009.5 0.0
30/10:00am 17.9 12.0 4.1 40 6.8 WNW 24 37 13 20 1009.7 1009.6 0.0
30/09:35am 17.4 10.8 4.4 42 6.4 NW 28 46 15 25 1009.6 1009.5 0.0
30/09:30am 17.3 10.3 3.9 41 6.5 WNW 30 46 16 25 1009.6 1009.5 0.0
30/09:06am 17.0 10.2 3.3 40 6.6 NW 28 57 15 31 1009.8 1009.7 0.0
30/09:00am 16.9 11.1 4.6 44 6.1 NNW 24 43 13 23 1010.1 1009.9 0.0
30/08:30am 16.1 9.9 4.2 45 5.8 NW 26 41 14 22 1010.5 1010.3 0.0
30/08:00am 15.7 12.5 3.2 43 5.9 N 9 19 5 10 1010.5 1010.3 0.0
30/07:30am 14.9 9.2 3.1 45 5.6 NNW 22 32 12 17 1010.4 1010.2 0.0
30/07:00am 14.2 9.6 3.7 49 5.0 N 17 33 9 18 1010.6 1010.4 0.0
30/06:30am 12.5 8.7 3.7 55 4.1 N 13 20 7 11 1010.8 1010.7 0.0
30/06:00am 12.4 8.4 2.8 52 4.4 N 13 20 7 11 1010.7 1010.5 0.0
30/05:30am 11.5 8.1 1.7 51 4.4 N 9 15 5 8 1010.7 1010.5 0.0
30/05:00am 10.9 7.5 1.7 53 4.1 N 9 13 5 7 1010.6 1010.4 0.0
30/04:30am 11.1 6.9 1.9 53 4.1 N 13 19 7 10 1010.6 1010.4 0.0
30/04:00am 10.8 7.1 2.1 55 3.9 N 11 15 6 8 1010.9 1010.8 0.0
30/03:30am 10.6 7.3 2.2 56 3.7 NNE 9 13 5 7 1011.2 1011.1 0.0
30/03:00am 11.6 7.9 2.1 52 4.3 ENE 11 19 6 10 1011.4 1011.2 0.0
30/02:30am 11.5 7.7 2.0 52 4.2 NE 11 19 6 10 1011.5 1011.3 0.0
30/02:00am 11.4 6.5 1.9 52 4.2 NNE 17 20 9 11 1011.9 1011.7 0.0
30/01:30am 12.8 6.9 1.5 46 5.1 NNW 22 33 12 18 1011.9 1011.7 0.0
30/01:00am 13.8 6.4 -0.6 37 6.2 NNW 28 37 15 20 1012.1 1012.0 0.0
30/12:30am 13.0 6.5 0.4 42 5.5 N 24 39 13 21 1012.5 1012.4 0.0
30/12:00am 12.7 4.9 1.4 46 5.0 N 32 43 17 23 1012.6 1012.5 0.0
 
Date/Time
EST
Temp
°C
App
Temp
°C
Dew
Point
Rel
Hum
%
Delta-T
°C
Wind Press
QNH
hPa
Press
MSL
hPa
Rain
since 9 am
mm
Dir
 
Spd
km/h
Gust
km/h
Spd
kts
Gust
kts
29/11:30pm 12.5 4.6 0.9 45 5.1 N 32 39 17 21 1012.6 1012.5 0.0
29/11:00pm 12.1 5.7 1.1 47 4.9 N 24 32 13 17 1013.0 1012.8 0.0
29/10:30pm 11.9 6.8 1.0 47 4.8 N 17 19 9 10 1013.1 1013.0 0.0
29/10:00pm 11.7 7.9 1.9 51 4.4 N 11 13 6 7 1013.4 1013.3 0.0
29/09:30pm 13.0 8.1 2.0 47 5.0 N 17 22 9 12 1013.7 1013.6 0.0
29/09:00pm 13.6 9.1 2.2 46 5.2 N 15 22 8 12 1013.7 1013.6 0.0
29/08:30pm 13.8 9.5 3.0 48 5.0 N 15 19 8 10 1013.9 1013.8 0.0
29/08:00pm 15.2 11.6 2.7 43 5.9 N 11 17 6 9 1013.9 1013.8 0.0
29/07:30pm 15.6 11.4 1.7 39 6.4 N 13 17 7 9 1013.8 1013.7 0.0
29/07:00pm 15.5 12.1 -2.4 29 7.5 N 6 11 3 6 1013.5 1013.4 0.0
29/06:30pm 17.0 12.9 -3.1 25 8.5 NNW 9 11 5 6 1013.2 1013.1 0.0
29/06:00pm 16.6 12.5 -0.1 32 7.5 NNW 11 17 6 9 1012.8 1012.6 0.0
29/05:30pm 19.2 15.4 -0.7 26 9.0 W 9 13 5 7 1012.6 1012.5 0.0
29/05:00pm 19.4 15.6 1.9 31 8.3 WNW 11 20 6 11 1012.3 1012.2 0.0
29/04:30pm 20.0 14.0 -1.7 23 9.7 WNW 20 32 11 17 1012.0 1011.9 0.0
29/04:00pm 20.7 15.4 -0.6 24 9.8 NW 17 22 9 12 1011.9 1011.7 0.0
29/03:30pm 20.9 15.7 2.7 30 8.9 WNW 19 32 10 17 1011.8 1011.6 0.0
29/03:00pm 21.1 15.0 0.3 25 9.7 WNW 22 35 12 19 1011.7 1011.5 0.0
29/02:30pm 21.2 16.1 1.0 26 9.6 SW 17 22 9 12 1011.6 1011.4 0.0
29/02:00pm 21.1 15.2 -2.0 21 10.3 W 19 32 10 17 1011.7 1011.5 0.0
29/01:30pm 19.9 18.5 9.5 51 5.7 SSE 7 13 4 7 1012.0 1011.9 0.0
29/01:00pm 19.2 17.1 9.9 55 5.2 SSE 11 17 6 9 1012.1 1012.0 0.0
29/12:30pm 18.6 16.0 9.4 55 5.0 S 13 17 7 9 1012.2 1012.1 0.0
29/12:00pm 18.5 16.6 9.0 54 5.2 SE 9 15 5 8 1012.5 1012.4 0.0
29/11:30am 18.0 16.8 9.6 58 4.6 SSE 6 11 3 6 1012.8 1012.6 0.0
29/11:00am 17.2 16.0 9.4 60 4.2 S 6 13 3 7 1013.0 1012.8 0.0
29/10:30am 16.6 14.3 9.1 61 4.0 SE 11 17 6 9 1013.1 1013.0 0.0
29/10:00am 15.9 12.9 7.7 58 4.3 SSE 13 19 7 10 1013.4 1013.3 0.0
29/09:30am 16.0 14.0 10.1 68 3.2 SSE 11 17 6 9 1013.3 1013.2 0.0
29/09:00am 16.7 13.9 6.8 52 5.1 SW 11 22 6 12 1013.3 1013.2 0.0
29/08:30am 15.9 15.0 7.7 58 4.3 ENE 2 6 1 3 1013.0 1012.8 0.0
29/08:00am 13.1 12.0 8.4 73 2.4 SSW 4 9 2 5 1012.8 1012.6 0.0
29/07:30am 12.5 10.2 7.4 71 2.6 S 9 20 5 11 1012.5 1012.4 0.0
29/07:00am 14.9 11.6 4.6 50 5.0 N 11 13 6 7 1012.0 1011.9 0.0
29/06:30am 14.7 11.3 4.1 49 5.1 NNW 11 20 6 11 1011.9 1011.7 0.0
29/06:00am 14.6 10.4 4.0 49 5.1 N 15 28 8 15 1011.5 1011.3 0.0
29/05:30am 15.1 10.8 3.3 45 5.6 NW 15 26 8 14 1011.1 1011.0 0.0
29/05:00am 15.8 10.2 3.6 44 5.9 NW 22 37 12 20 1010.7 1010.5 0.0
29/04:30am 16.0 10.8 3.4 43 6.0 WNW 20 39 11 21 1010.7 1010.5 0.0
29/04:00am 17.1 12.4 3.1 39 6.7 NW 17 41 9 22 1010.1 1009.9 0.0
29/03:30am 17.6 9.4 2.8 37 7.1 NW 35 54 19 29 1008.8 1008.6 0.0
29/03:00am 18.0 9.7 2.3 35 7.5 NW 35 67 19 36 1008.2 1008.0 0.0
29/02:34am 18.1 10.2 2.4 35 7.5 NNW 33 56 18 30 1008.0 1007.8 0.0
29/02:30am 18.1 10.4 2.4 35 7.5 NNW 32 46 17 25 1008.1 1007.9 0.0
29/02:21am 17.6 10.7 2.4 36 7.2 NNW 28 48 15 26 1008.5 1008.2 0.0
29/02:00am 17.0 10.6 3.3 40 6.6 N 26 44 14 24 1008.7 1008.5 0.0
29/01:30am 16.6 9.1 3.3 41 6.4 N 32 44 17 24 1009.3 1009.1 0.0
29/01:00am 17.1 8.9 2.7 38 6.9 N 35 50 19 27 1009.6 1009.5 0.0
29/12:30am 17.0 9.4 3.7 41 6.4 N 33 48 18 26 1010.1 1009.9 0.0
29/12:22am 17.1 10.0 3.4 40 6.6 N 30 48 16 26 1010.0 1009.8 0.0

Other Formats:

Comma delimited format used in spreadsheet applications
http://www.bom.gov.au/fwo/IDV60801/IDV60801.94913.axf

JavaScript Object Notation format (JSON) in row-major order
http://www.bom.gov.au/fwo/IDV60801/IDV60801.94913.json